createdAt,value
2022-12-19T00:01:22.565Z,-9.5
2022-12-19T00:06:23.605Z,-9.4
2022-12-19T00:08:54.666Z,-9.4
2022-12-19T00:11:25.310Z,-9.4
2022-12-19T00:13:55.938Z,-9.4
2022-12-19T00:16:36.584Z,-9.4
2022-12-19T00:19:07.645Z,-9.5
2022-12-19T00:21:38.243Z,-9.5
2022-12-19T00:24:13.149Z,-9.5
2022-12-19T00:26:41.041Z,-9.4
2022-12-19T00:29:14.355Z,-9.4
2022-12-19T00:31:46.979Z,-9.4
2022-12-19T00:34:17.832Z,-9.4
2022-12-19T00:36:48.488Z,-9.4
2022-12-19T00:39:19.133Z,-9.4
2022-12-19T00:41:49.745Z,-9.4
2022-12-19T00:47:00.546Z,-9.4
2022-12-19T00:49:31.172Z,-9.4
2022-12-19T00:52:04.226Z,-9.4
2022-12-19T00:54:35.605Z,-9.4
2022-12-19T00:57:06.585Z,-9.4
2022-12-19T00:59:47.192Z,-9.3
2022-12-19T01:02:17.914Z,-9.3
2022-12-19T01:04:48.945Z,-9.3
2022-12-19T01:07:19.565Z,-9.2
2022-12-19T01:09:50.161Z,-9.2
2022-12-19T01:12:22.511Z,-9.2
2022-12-19T01:15:05.476Z,-9.2
2022-12-19T01:17:38.249Z,-9.1
2022-12-19T01:20:04.602Z,-9.1
2022-12-19T01:22:30.156Z,-9.1
2022-12-19T01:27:30.933Z,-9.0
2022-12-19T01:30:11.528Z,-9.0
2022-12-19T01:32:44.136Z,-9.1
2022-12-19T01:35:20.758Z,-9.0
2022-12-19T01:37:53.583Z,-9.0
2022-12-19T01:40:19.482Z,-9.0
2022-12-19T01:42:50.152Z,-9.0
2022-12-19T01:45:34.235Z,-9.0
2022-12-19T01:48:06.613Z,-9.0
2022-12-19T01:50:37.223Z,-9.0
2022-12-19T01:53:02.352Z,-9.0
2022-12-19T01:55:32.977Z,-9.0
2022-12-19T01:58:13.545Z,-9.0
2022-12-19T02:03:14.343Z,-9.0
2022-12-19T02:08:15.236Z,-8.9
2022-12-19T02:10:45.875Z,-8.9
2022-12-19T02:13:26.491Z,-8.9
2022-12-19T02:15:57.190Z,-8.8
2022-12-19T02:18:30.257Z,-8.8
2022-12-19T02:21:00.945Z,-8.8
2022-12-19T02:23:31.567Z,-8.8
2022-12-19T02:26:02.185Z,-8.8
2022-12-19T02:28:42.839Z,-8.8
2022-12-19T02:31:16.889Z,-8.8
2022-12-19T02:33:48.404Z,-8.8
2022-12-19T02:36:11.522Z,-8.7
2022-12-19T02:38:48.761Z,-8.8
2022-12-19T02:41:19.457Z,-8.8
2022-12-19T02:44:00.094Z,-8.8
2022-12-19T02:49:00.898Z,-8.8
2022-12-19T02:51:31.072Z,-8.7
2022-12-19T02:54:01.684Z,-8.7
2022-12-19T02:56:42.317Z,-8.6
2022-12-19T02:59:12.950Z,-8.7
2022-12-19T03:01:43.728Z,-8.7
2022-12-19T03:04:14.785Z,-8.7
2022-12-19T03:06:45.433Z,-8.6
2022-12-19T03:09:17.999Z,-8.7
2022-12-19T03:11:58.629Z,-8.7
2022-12-19T03:14:23.234Z,-8.6
2022-12-19T03:16:53.944Z,-8.6
2022-12-19T03:19:24.648Z,-8.6
2022-12-19T03:24:35.455Z,-8.6
2022-12-19T03:29:46.313Z,-8.6
2022-12-19T03:32:16.939Z,-8.6
2022-12-19T03:34:47.590Z,-8.6
2022-12-19T03:37:18.317Z,-8.5
2022-12-19T03:39:58.985Z,-8.5
2022-12-19T03:42:29.989Z,-8.5
2022-12-19T03:45:01.381Z,-8.4
2022-12-19T03:47:32.136Z,-8.5
2022-12-19T03:50:02.771Z,-8.4
2022-12-19T03:52:33.461Z,-8.4
2022-12-19T03:55:14.171Z,-8.4
2022-12-19T03:57:44.862Z,-8.4
2022-12-19T04:00:15.509Z,-8.4
2022-12-19T04:02:46.211Z,-8.4
2022-12-19T04:05:16.941Z,-8.4
2022-12-19T04:10:27.736Z,-8.3
2022-12-19T04:12:58.422Z,-8.3
2022-12-19T04:15:29.404Z,-8.3
2022-12-19T04:18:00.121Z,-8.3
2022-12-19T04:20:30.756Z,-8.3
2022-12-19T04:23:01.384Z,-8.3
2022-12-19T04:25:42.085Z,-8.2
2022-12-19T04:28:12.704Z,-8.2
2022-12-19T04:30:43.351Z,-8.2
2022-12-19T04:33:14.176Z,-8.2
2022-12-19T04:35:44.848Z,-8.2
2022-12-19T04:38:15.516Z,-8.2
2022-12-19T04:40:56.193Z,-8.2
2022-12-19T04:43:26.818Z,-8.2
2022-12-19T04:45:57.843Z,-8.1
2022-12-19T04:50:58.885Z,-8.1
2022-12-19T04:53:39.534Z,-8.2
2022-12-19T04:56:10.250Z,-8.2
2022-12-19T04:58:40.881Z,-8.2
2022-12-19T05:01:11.559Z,-8.2
2022-12-19T05:03:42.540Z,-8.2
2022-12-19T05:06:16.270Z,-8.2
2022-12-19T05:08:56.901Z,-8.2
2022-12-19T05:11:27.543Z,-8.1
2022-12-19T05:13:58.192Z,-8.1
2022-12-19T05:16:28.884Z,-8.1
2022-12-19T05:18:59.526Z,-8.1
2022-12-19T05:21:30.152Z,-8.1
2022-12-19T05:24:10.818Z,-8.1
2022-12-19T05:26:41.739Z,-8.0
2022-12-19T05:31:42.864Z,-8.0
2022-12-19T05:34:13.608Z,-8.0
2022-12-19T05:36:44.261Z,-8.0
2022-12-19T05:39:24.917Z,-8.1
2022-12-19T05:41:55.572Z,-8.1
2022-12-19T05:44:21.381Z,-7.9
2022-12-19T05:46:52.062Z,-8.0
2022-12-19T05:49:22.825Z,-8.0
2022-12-19T05:51:55.119Z,-7.9
2022-12-19T05:54:35.792Z,-7.9
2022-12-19T05:57:06.432Z,-7.9
2022-12-19T05:59:37.076Z,-7.9
2022-12-19T06:02:07.805Z,-7.9
2022-12-19T06:04:38.827Z,-7.8
2022-12-19T06:07:21.010Z,-7.8
2022-12-19T06:12:22.066Z,-7.8
2022-12-19T06:14:52.710Z,-7.8
2022-12-19T06:17:23.374Z,-7.8
2022-12-19T06:19:53.998Z,-7.8
2022-12-19T06:22:34.622Z,-7.6
2022-12-19T06:25:05.321Z,-7.7
2022-12-19T06:27:35.988Z,-7.7
2022-12-19T06:30:06.609Z,-7.7
2022-12-19T06:32:39.113Z,-7.8
2022-12-19T06:37:49.934Z,-7.6
2022-12-19T06:45:21.974Z,-7.7
2022-12-19T06:47:52.695Z,-7.5
2022-12-19T06:53:03.490Z,-7.6
2022-12-19T06:55:34.555Z,-7.6
2022-12-19T06:58:05.155Z,-7.6
2022-12-19T07:00:39.626Z,-7.6
2022-12-19T07:03:10.546Z,-7.5
2022-12-19T07:05:41.279Z,-7.5
2022-12-19T07:08:21.910Z,-7.5
2022-12-19T07:10:52.553Z,-7.4
2022-12-19T07:13:23.287Z,-7.4
2022-12-19T07:15:53.938Z,-7.4
2022-12-19T07:18:24.805Z,-7.3
2022-12-19T07:21:05.427Z,-7.3
2022-12-19T07:23:36.059Z,-7.4
2022-12-19T07:26:06.719Z,-7.4
2022-12-19T07:28:37.344Z,-7.3
2022-12-19T07:33:38.176Z,-7.3
2022-12-19T07:36:19.884Z,-7.2
2022-12-19T07:38:50.525Z,-7.3
2022-12-19T07:41:21.194Z,-7.4
2022-12-19T07:43:52.065Z,-7.2
2022-12-19T07:46:22.942Z,-7.2
2022-12-19T07:48:53.930Z,-7.2
2022-12-19T07:51:29.992Z,-7.1
2022-12-19T07:54:00.614Z,-7.0
2022-12-19T07:56:32.130Z,-7.0
2022-12-19T07:59:03.334Z,-6.9
2022-12-19T08:01:40.727Z,-7.0
2022-12-19T08:04:02.059Z,-7.0
2022-12-19T08:06:42.682Z,-7.0
2022-12-19T08:09:23.302Z,-6.9
2022-12-19T08:14:24.077Z,-6.8
2022-12-19T08:17:19.606Z,-6.6
2022-12-19T08:19:24.680Z,-6.7
2022-12-19T08:21:57.803Z,-6.7
2022-12-19T08:24:28.574Z,-6.7
2022-12-19T08:26:59.232Z,-6.9
2022-12-19T08:29:29.913Z,-6.8
2022-12-19T08:32:00.572Z,-6.8
2022-12-19T08:34:46.086Z,-6.8
2022-12-19T08:37:18.835Z,-6.8
2022-12-19T08:39:49.483Z,-6.7
2022-12-19T08:42:20.178Z,-6.8
2022-12-19T08:47:20.997Z,-6.6
2022-12-19T08:57:32.114Z,-6.5
2022-12-19T09:02:33.137Z,-6.3
2022-12-19T09:07:44.495Z,-6.3
2022-12-19T09:10:15.148Z,-6.4
2022-12-19T09:12:49.055Z,-6.3
2022-12-19T09:15:22.132Z,-6.2
2022-12-19T09:18:02.804Z,-6.1
2022-12-19T09:20:24.694Z,-6.1
2022-12-19T09:22:55.303Z,-6.1
2022-12-19T09:25:25.964Z,-6.1
2022-12-19T09:28:26.232Z,-6.0
2022-12-19T09:38:17.424Z,-5.9
2022-12-19T09:43:18.663Z,-5.6
2022-12-19T09:45:41.820Z,-5.7
2022-12-19T09:48:24.396Z,-5.7
2022-12-19T09:51:09.912Z,-5.8
2022-12-19T09:53:31.674Z,-5.7
2022-12-19T09:56:04.689Z,-5.7
2022-12-19T09:58:35.299Z,-5.8
2022-12-19T10:01:15.992Z,-5.7
2022-12-19T10:03:40.101Z,-5.8
2022-12-19T10:06:32.775Z,-5.7
2022-12-19T10:08:40.650Z,-5.6
2022-12-19T10:12:59.477Z,-5.5
2022-12-19T10:16:24.143Z,-5.4
2022-12-19T10:18:56.379Z,-5.5
2022-12-19T10:21:43.146Z,-5.4
2022-12-19T10:23:59.078Z,-5.4
2022-12-19T10:26:30.152Z,-5.3
2022-12-19T10:29:00.977Z,-5.0
2022-12-19T10:31:43.942Z,-4.9
2022-12-19T10:34:15.887Z,-5.0
2022-12-19T10:37:04.198Z,-4.9
2022-12-19T10:39:09.167Z,-5.0
2022-12-19T10:41:43.957Z,-5.2
2022-12-19T10:44:14.896Z,-5.0
2022-12-19T10:46:56.246Z,-5.0
2022-12-19T10:49:27.087Z,-4.9
2022-12-19T10:51:57.767Z,-4.9
2022-12-19T10:56:58.848Z,-4.7
2022-12-19T10:59:39.501Z,-4.7
2022-12-19T11:02:11.625Z,-4.6
2022-12-19T11:04:42.800Z,-4.6
2022-12-19T11:07:13.741Z,-4.5
2022-12-19T11:09:48.193Z,-4.4
2022-12-19T11:32:50.986Z,-4.1
2022-12-19T11:33:21.937Z,-3.7
2022-12-19T11:33:52.659Z,-3.9
2022-12-19T11:34:23.258Z,-3.8
2022-12-19T11:34:53.779Z,-3.9
2022-12-19T11:35:25.211Z,-4.0
2022-12-19T11:37:37.619Z,-3.9
2022-12-19T11:40:08.262Z,-3.9
2022-12-19T11:42:38.906Z,-3.9
2022-12-19T11:45:24.584Z,-3.7
2022-12-19T11:50:25.385Z,-3.7
2022-12-19T11:53:05.034Z,-3.3
2022-12-19T11:55:30.249Z,-3.3
2022-12-19T11:58:00.887Z,-3.2
2022-12-19T12:03:11.740Z,-3.0
2022-12-19T12:05:42.543Z,-3.1
2022-12-19T12:08:52.210Z,-3.1
2022-12-19T12:35:25.342Z,-3.2
2022-12-19T12:38:25.266Z,-3.1
2022-12-19T12:39:35.770Z,-3.4
2022-12-19T12:40:06.288Z,-3.4
2022-12-19T12:40:44.131Z,-3.5
2022-12-19T12:41:14.699Z,-3.4
2022-12-19T12:41:45.296Z,-3.5
2022-12-19T12:42:15.888Z,-3.4
2022-12-19T12:42:46.418Z,-3.3
2022-12-19T12:43:17.556Z,-3.4
2022-12-19T12:43:48.091Z,-3.4
2022-12-19T12:46:19.824Z,-3.4
2022-12-19T12:48:50.553Z,-3.3
2022-12-19T12:51:21.339Z,-3.3
2022-12-19T12:53:51.981Z,-3.3
2022-12-19T12:59:02.787Z,-3.4
2022-12-19T13:01:33.670Z,-3.5
2022-12-19T13:04:04.901Z,-3.5
2022-12-19T13:06:35.590Z,-3.4
2022-12-19T13:09:06.260Z,-3.4
2022-12-19T13:11:46.896Z,-3.4
2022-12-19T13:14:17.574Z,-3.4
2022-12-19T13:16:48.255Z,-3.4
2022-12-19T13:21:49.258Z,-3.4
2022-12-19T13:24:19.891Z,-3.5
2022-12-19T13:29:30.766Z,-3.7
2022-12-19T13:34:31.533Z,-3.5
2022-12-19T13:39:53.867Z,-3.7
2022-12-19T13:42:13.248Z,-3.7
2022-12-19T13:44:44.186Z,-3.7
2022-12-19T13:47:17.684Z,-3.6
2022-12-19T13:49:51.026Z,-3.5
2022-12-19T13:52:21.694Z,-3.4
2022-12-19T13:54:52.307Z,-3.5
2022-12-19T13:57:33.066Z,-3.6
2022-12-19T14:00:03.692Z,-3.5
2022-12-19T14:02:34.977Z,-3.4
2022-12-19T14:05:05.464Z,-3.5
2022-12-19T14:07:37.909Z,-3.5
2022-12-19T14:11:27.509Z,-3.3
2022-12-19T14:14:19.044Z,-3.6
2022-12-19T14:15:21.126Z,-3.6
2022-12-19T14:22:01.426Z,-3.6
2022-12-19T14:22:45.740Z,-3.7
2022-12-19T14:26:06.130Z,-3.7
2022-12-19T14:29:02.650Z,-3.7
2022-12-19T14:30:38.424Z,-3.6
2022-12-19T14:33:41.451Z,-3.7
2022-12-19T14:36:26.382Z,-3.7
2022-12-19T14:39:21.590Z,-3.7
2022-12-19T14:41:07.734Z,-3.8
2022-12-19T14:43:55.998Z,-3.8
2022-12-19T14:56:33.491Z,-3.8
2022-12-19T14:57:25.277Z,-3.8
2022-12-19T14:59:16.241Z,-3.8
2022-12-19T14:59:46.932Z,-3.8
2022-12-19T15:01:22.899Z,-3.8
2022-12-19T15:01:54.177Z,-3.9
2022-12-19T15:03:28.041Z,-3.9
2022-12-19T15:06:02.240Z,-4.0
2022-12-19T15:09:02.470Z,-4.0
2022-12-19T15:12:56.699Z,-4.1
2022-12-19T15:15:20.578Z,-4.1
2022-12-19T15:16:21.241Z,-4.1
2022-12-19T15:18:52.167Z,-4.1
2022-12-19T15:21:22.806Z,-4.1
2022-12-19T15:24:03.441Z,-4.1
2022-12-19T15:26:34.064Z,-4.1
2022-12-19T15:28:57.497Z,-4.1
2022-12-19T15:31:32.499Z,-4.1
2022-12-19T15:34:34.048Z,-4.1
2022-12-19T15:36:31.794Z,-4.1
2022-12-19T15:41:43.112Z,-4.1
2022-12-19T15:44:13.968Z,-4.1
2022-12-19T15:46:48.273Z,-4.1
2022-12-19T15:49:19.611Z,-4.1
2022-12-19T15:51:50.264Z,-4.1
2022-12-19T15:54:50.005Z,-4.1
2022-12-19T15:57:01.259Z,-4.1
2022-12-19T15:59:37.666Z,-4.1
2022-12-19T16:04:29.314Z,-4.1
2022-12-19T16:07:10.542Z,-4.1
2022-12-19T16:09:41.210Z,-4.1
2022-12-19T16:12:11.842Z,-4.1
2022-12-19T16:14:42.429Z,-4.1
2022-12-19T16:17:13.083Z,-4.1
2022-12-19T16:22:23.931Z,-4.1
2022-12-19T16:24:54.526Z,-4.1
2022-12-19T16:27:25.260Z,-4.1
2022-12-19T16:29:55.908Z,-4.2
2022-12-19T16:32:29.187Z,-4.1
2022-12-19T16:34:59.814Z,-4.2
2022-12-19T16:37:40.494Z,-4.2
2022-12-19T16:40:11.138Z,-4.1
2022-12-19T16:42:41.772Z,-4.2
2022-12-19T16:45:12.655Z,-4.2
2022-12-19T16:47:43.306Z,-4.2
2022-12-19T16:50:13.959Z,-4.2
2022-12-19T16:52:54.609Z,-4.2
2022-12-19T16:55:25.294Z,-4.2
2022-12-19T16:57:55.926Z,-4.2
2022-12-19T17:02:56.749Z,-4.2
2022-12-19T17:05:37.829Z,-4.2
2022-12-19T17:08:08.530Z,-4.3
2022-12-19T17:13:09.315Z,-4.3
2022-12-19T17:15:39.997Z,-4.3
2022-12-19T17:18:17.291Z,-4.3
2022-12-19T17:20:57.976Z,-4.3
2022-12-19T17:23:28.576Z,-4.3
2022-12-19T17:25:59.212Z,-4.3
2022-12-19T17:28:24.565Z,-4.3
2022-12-19T17:30:55.313Z,-4.3
2022-12-19T17:33:26.468Z,-4.3
2022-12-19T17:36:07.176Z,-4.3
2022-12-19T17:38:38.065Z,-4.3
2022-12-19T17:43:38.845Z,-4.3
2022-12-19T17:46:09.533Z,-4.3
2022-12-19T17:48:40.437Z,-4.4
2022-12-19T17:51:21.114Z,-4.3
2022-12-19T17:53:51.802Z,-4.3
2022-12-19T17:56:22.485Z,-4.3
2022-12-19T17:58:53.128Z,-4.3
2022-12-19T18:01:23.861Z,-4.3
2022-12-19T18:03:54.963Z,-4.3
2022-12-19T18:06:35.657Z,-4.3
2022-12-19T18:09:06.422Z,-4.3
2022-12-19T18:11:41.509Z,-4.3
2022-12-19T18:14:12.554Z,-4.4
2022-12-19T18:16:43.228Z,-4.4
2022-12-19T18:24:24.507Z,-4.5
2022-12-19T18:26:55.163Z,-4.5
2022-12-19T18:29:25.867Z,-4.5
2022-12-19T18:31:56.529Z,-4.7
2022-12-19T18:34:37.204Z,-4.8
2022-12-19T18:37:07.839Z,-4.8
2022-12-19T18:39:38.478Z,-4.9
2022-12-19T18:42:09.111Z,-4.9
2022-12-19T18:44:39.787Z,-4.9
2022-12-19T18:47:10.449Z,-5.0
2022-12-19T18:49:51.081Z,-5.0
2022-12-19T18:52:21.720Z,-5.0
2022-12-19T18:54:52.367Z,-5.0
2022-12-19T18:57:23.041Z,-4.9
2022-12-19T18:59:53.685Z,-4.9
2022-12-19T19:05:04.456Z,-4.9
2022-12-19T19:07:35.228Z,-4.9
2022-12-19T19:10:05.872Z,-5.0
2022-12-19T19:12:36.505Z,-5.0
2022-12-19T19:15:07.148Z,-5.0
2022-12-19T19:17:37.788Z,-5.0
2022-12-19T19:20:19.223Z,-5.2
2022-12-19T19:22:49.919Z,-5.2
2022-12-19T19:25:20.773Z,-5.3
2022-12-19T19:27:51.453Z,-5.4
2022-12-19T19:30:22.119Z,-5.4
2022-12-19T19:33:02.979Z,-5.5
2022-12-19T19:35:33.668Z,-5.5
2022-12-19T19:38:04.315Z,-5.3
2022-12-19T19:40:34.915Z,-5.2
2022-12-19T19:45:41.257Z,-5.2
2022-12-19T19:48:23.742Z,-4.9
2022-12-19T19:50:54.410Z,-4.8
2022-12-19T19:53:25.098Z,-4.8
2022-12-19T19:55:55.759Z,-4.8
2022-12-19T19:58:26.408Z,-4.8
2022-12-19T20:00:57.179Z,-4.8
2022-12-19T20:03:38.239Z,-4.8
2022-12-19T20:06:09.287Z,-4.7
2022-12-19T20:08:40.745Z,-4.8
2022-12-19T20:11:01.647Z,-4.7
2022-12-19T20:13:32.323Z,-4.6
2022-12-19T20:16:03.303Z,-4.5
2022-12-19T20:18:44.271Z,-4.5
2022-12-19T20:21:14.937Z,-4.5
2022-12-19T20:26:25.761Z,-4.5
2022-12-19T20:28:56.402Z,-4.5
2022-12-19T20:31:37.115Z,-4.5
2022-12-19T20:34:07.901Z,-4.5
2022-12-19T20:36:38.531Z,-4.5
2022-12-19T20:39:09.189Z,-4.5
2022-12-19T20:41:39.923Z,-4.4
2022-12-19T20:44:10.572Z,-4.4
2022-12-19T20:46:45.233Z,-4.4
2022-12-19T20:49:16.092Z,-4.3
2022-12-19T20:51:46.742Z,-4.3
2022-12-19T20:54:17.371Z,-4.3
2022-12-19T20:56:48.040Z,-4.3
2022-12-19T20:59:18.642Z,-4.3
2022-12-19T21:01:59.564Z,-4.3
2022-12-19T21:07:00.844Z,-4.4
2022-12-19T21:09:31.485Z,-4.4
2022-12-19T21:12:02.117Z,-4.4
2022-12-19T21:14:32.753Z,-4.4
2022-12-19T21:17:13.417Z,-4.4
2022-12-19T21:19:44.066Z,-4.3
2022-12-19T21:22:14.753Z,-4.3
2022-12-19T21:24:45.387Z,-4.3
2022-12-19T21:27:16.054Z,-4.3
2022-12-19T21:29:56.713Z,-4.4
2022-12-19T21:32:27.420Z,-4.4
2022-12-19T21:34:58.062Z,-4.4
2022-12-19T21:37:28.720Z,-4.5
2022-12-19T21:40:04.179Z,-4.5
2022-12-19T21:42:34.859Z,-4.4
2022-12-19T21:47:45.649Z,-4.3
2022-12-19T21:50:16.302Z,-4.3
2022-12-19T21:52:50.109Z,-4.3
2022-12-19T21:55:22.126Z,-4.3
2022-12-19T21:57:52.786Z,-4.3
2022-12-19T22:00:33.497Z,-4.3
2022-12-19T22:03:14.752Z,-4.4
2022-12-19T22:05:35.938Z,-4.4
2022-12-19T22:08:06.627Z,-4.4
2022-12-19T22:10:37.329Z,-4.4
2022-12-19T22:13:07.952Z,-4.5
2022-12-19T22:15:48.678Z,-4.5
2022-12-19T22:18:19.510Z,-4.5
2022-12-19T22:20:50.182Z,-4.5
2022-12-19T22:23:20.799Z,-4.5
2022-12-19T22:28:21.592Z,-4.5
2022-12-19T22:31:02.283Z,-4.4
2022-12-19T22:33:33.147Z,-4.4
2022-12-19T22:36:03.875Z,-4.4
2022-12-19T22:38:28.996Z,-4.4
2022-12-19T22:40:59.682Z,-4.4
2022-12-19T22:43:40.339Z,-4.4
2022-12-19T22:46:11.164Z,-4.3
2022-12-19T22:48:42.285Z,-4.4
2022-12-19T22:51:12.929Z,-4.4
2022-12-19T22:53:43.550Z,-4.4
2022-12-19T22:56:14.204Z,-4.4
2022-12-19T22:58:54.868Z,-4.3
2022-12-19T23:01:25.579Z,-4.4
2022-12-19T23:03:56.722Z,-4.4
2022-12-19T23:08:58.402Z,-4.5
2022-12-19T23:11:29.048Z,-4.5
2022-12-19T23:14:09.678Z,-4.5
2022-12-19T23:16:40.433Z,-4.5
2022-12-19T23:19:11.559Z,-4.5
2022-12-19T23:21:42.605Z,-4.5
2022-12-19T23:24:13.406Z,-4.5
2022-12-19T23:26:46.582Z,-4.4
2022-12-19T23:29:27.231Z,-4.4
2022-12-19T23:31:57.988Z,-4.4
2022-12-19T23:34:29.742Z,-4.4
2022-12-19T23:37:10.546Z,-4.4
2022-12-19T23:39:31.632Z,-4.4
2022-12-19T23:42:02.336Z,-4.3
2022-12-19T23:44:43.442Z,-4.4
2022-12-19T23:49:44.261Z,-4.4
2022-12-19T23:52:14.919Z,-4.4
2022-12-19T23:54:45.573Z,-4.4
2022-12-19T23:57:26.256Z,-4.4
2022-12-19T23:59:56.929Z,-4.4
